createdAt,value
2018-06-27T00:01:22.210Z,91.90
2018-06-27T00:06:18.621Z,92.10
2018-06-27T00:08:46.948Z,92.10
2018-06-27T00:11:15.288Z,92.20
2018-06-27T00:13:43.605Z,92.20
2018-06-27T00:16:11.999Z,92.40
2018-06-27T00:18:40.628Z,92.40
2018-06-27T00:21:08.965Z,92.40
2018-06-27T00:23:37.296Z,92.40
2018-06-27T00:26:05.694Z,92.40
2018-06-27T00:28:34.021Z,92.50
2018-06-27T00:31:02.366Z,92.60
2018-06-27T00:33:30.697Z,92.70
2018-06-27T00:35:59.027Z,92.60
2018-06-27T00:38:27.378Z,92.60
2018-06-27T00:40:55.813Z,92.70
2018-06-27T00:43:24.153Z,92.80
2018-06-27T00:48:20.543Z,93.00
2018-06-27T00:50:48.864Z,92.90
2018-06-27T00:53:17.207Z,93.00
2018-06-27T00:55:45.535Z,93.10
2018-06-27T00:58:13.905Z,93.20
2018-06-27T01:00:42.216Z,93.20
2018-06-27T01:03:10.565Z,93.30
2018-06-27T01:05:38.895Z,93.30
2018-06-27T01:08:07.240Z,93.40
2018-06-27T01:13:03.668Z,93.40
2018-06-27T01:15:31.991Z,93.30
2018-06-27T01:18:00.316Z,93.30
2018-06-27T01:20:28.626Z,93.40
2018-06-27T01:22:56.959Z,93.50
2018-06-27T01:25:25.295Z,93.70
2018-06-27T01:30:21.675Z,94.00
2018-06-27T01:32:49.996Z,94.00
2018-06-27T01:35:18.300Z,93.90
2018-06-27T01:37:46.647Z,93.90
2018-06-27T01:40:14.969Z,93.80
2018-06-27T01:42:43.376Z,93.90
2018-06-27T01:45:11.689Z,93.80
2018-06-27T01:47:40.039Z,93.80
2018-06-27T01:50:08.354Z,93.90
2018-06-27T01:52:36.748Z,94.00
2018-06-27T01:55:05.281Z,94.40
2018-06-27T01:57:33.645Z,94.20
2018-06-27T02:00:02.161Z,94.30
2018-06-27T02:02:30.657Z,94.90
2018-06-27T02:04:58.964Z,94.80
2018-06-27T02:07:27.297Z,94.70
2018-06-27T02:09:55.610Z,94.70
2018-06-27T02:17:20.058Z,94.60
2018-06-27T02:19:48.405Z,94.50
2018-06-27T02:22:16.732Z,94.50
2018-06-27T02:24:45.053Z,94.50
2018-06-27T02:27:13.354Z,94.40
2018-06-27T02:29:41.680Z,94.40
2018-06-27T02:32:10.038Z,94.40
2018-06-27T02:34:38.386Z,94.40
2018-06-27T02:37:06.760Z,94.50
2018-06-27T02:39:35.108Z,94.50
2018-06-27T02:42:03.445Z,94.50
2018-06-27T02:44:31.781Z,94.60
2018-06-27T02:47:00.097Z,94.70
2018-06-27T02:49:28.429Z,94.60
2018-06-27T02:51:56.753Z,94.80
2018-06-27T02:54:25.104Z,95.10
2018-06-27T02:56:53.437Z,95.20
2018-06-27T02:59:21.769Z,95.40
2018-06-27T03:01:50.137Z,95.30
2018-06-27T03:04:18.467Z,95.30
2018-06-27T03:06:46.774Z,95.30
2018-06-27T03:09:15.102Z,95.20
2018-06-27T03:11:43.406Z,95.20
2018-06-27T03:14:11.741Z,95.30
2018-06-27T03:16:40.038Z,95.30
2018-06-27T03:19:08.362Z,95.40
2018-06-27T03:21:36.709Z,95.50
2018-06-27T03:24:05.086Z,95.80
2018-06-27T03:26:33.397Z,96.10
2018-06-27T03:29:01.724Z,96.20
2018-06-27T03:31:30.035Z,96.30
2018-06-27T03:33:58.397Z,96.50
2018-06-27T03:36:26.697Z,96.80
2018-06-27T03:38:55.037Z,96.90
2018-06-27T03:41:23.455Z,97.20
2018-06-27T03:43:51.797Z,97.10
2018-06-27T03:48:48.208Z,96.60
2018-06-27T03:51:16.528Z,96.90
2018-06-27T03:53:50.270Z,96.60
2018-06-27T03:56:18.585Z,96.80
2018-06-27T03:58:46.889Z,96.80
2018-06-27T04:01:15.234Z,96.70
2018-06-27T04:03:43.614Z,96.80
2018-06-27T04:06:11.937Z,97.10
2018-06-27T04:08:40.384Z,97.20
2018-06-27T04:11:08.875Z,97.20
2018-06-27T04:13:37.199Z,97.20
2018-06-27T04:16:05.533Z,97.20
2018-06-27T04:18:33.850Z,97.20
2018-06-27T04:21:02.169Z,97.10
2018-06-27T04:23:30.500Z,97.10
2018-06-27T04:25:58.865Z,97.40
2018-06-27T04:28:27.172Z,97.70
2018-06-27T04:30:55.511Z,97.60
2018-06-27T04:33:23.820Z,97.40
2018-06-27T04:35:52.240Z,97.40
2018-06-27T04:38:21.192Z,97.50
2018-06-27T04:40:49.547Z,97.50
2018-06-27T04:43:18.082Z,97.70
2018-06-27T04:45:46.390Z,97.70
2018-06-27T04:48:14.708Z,97.80
2018-06-27T04:50:43.050Z,97.90
2018-06-27T04:53:11.356Z,97.90
2018-06-27T04:55:39.677Z,98.00
2018-06-27T04:58:07.990Z,97.90
2018-06-27T05:00:36.382Z,97.80
2018-06-27T05:03:04.714Z,97.70
2018-06-27T05:05:33.079Z,97.70
2018-06-27T05:08:01.425Z,97.70
2018-06-27T05:10:29.768Z,97.80
2018-06-27T05:12:58.080Z,98.40
2018-06-27T05:15:26.461Z,98.10
2018-06-27T05:17:54.786Z,98.20
2018-06-27T05:20:29.517Z,98.20
2018-06-27T05:22:57.829Z,98.20
2018-06-27T05:25:26.167Z,98.30
2018-06-27T05:27:54.477Z,98.40
2018-06-27T05:30:22.804Z,98.50
2018-06-27T05:32:51.109Z,98.80
2018-06-27T05:35:19.440Z,98.90
2018-06-27T05:37:47.774Z,98.90
2018-06-27T05:40:16.102Z,98.90
2018-06-27T05:42:44.407Z,99.00
2018-06-27T05:45:12.717Z,99.10
2018-06-27T05:47:41.061Z,98.80
2018-06-27T05:50:09.360Z,98.50
2018-06-27T05:52:37.685Z,98.30
2018-06-27T05:55:10.240Z,98.30
2018-06-27T05:57:40.273Z,98.10
2018-06-27T06:00:09.566Z,97.80
2018-06-27T06:02:37.974Z,97.50
2018-06-27T06:05:06.502Z,97.40
2018-06-27T06:07:34.850Z,97.10
2018-06-27T06:10:03.602Z,96.70
2018-06-27T06:12:31.933Z,96.70
2018-06-27T06:15:00.233Z,96.10
2018-06-27T06:17:28.560Z,95.60
2018-06-27T06:19:56.861Z,95.10
2018-06-27T06:22:25.188Z,94.40
2018-06-27T06:24:53.527Z,94.60
2018-06-27T06:27:21.872Z,93.80
2018-06-27T06:29:50.180Z,93.60
2018-06-27T06:32:18.637Z,93.90
2018-06-27T06:37:14.933Z,92.90
2018-06-27T06:39:43.248Z,92.10
2018-06-27T06:42:11.578Z,92.00
2018-06-27T06:44:39.884Z,91.70
2018-06-27T06:47:08.212Z,91.50
2018-06-27T06:49:36.518Z,91.40
2018-06-27T06:52:04.908Z,91.00
2018-06-27T06:54:34.017Z,90.60
2018-06-27T06:57:02.361Z,90.20
2018-06-27T06:59:30.684Z,89.20
2018-06-27T07:01:59.012Z,88.30
2018-06-27T07:04:27.313Z,86.30
2018-06-27T07:06:55.641Z,85.90
2018-06-27T07:09:23.953Z,85.80
2018-06-27T07:11:52.299Z,85.20
2018-06-27T07:14:20.613Z,81.30
2018-06-27T07:16:48.950Z,79.00
2018-06-27T07:19:17.258Z,78.80
2018-06-27T07:21:45.597Z,78.70
2018-06-27T07:24:13.917Z,78.40
2018-06-27T07:26:42.313Z,78.40
2018-06-27T07:29:10.640Z,75.00
2018-06-27T07:31:38.957Z,73.20
2018-06-27T07:34:07.289Z,72.90
2018-06-27T07:36:35.630Z,72.00
2018-06-27T07:39:06.350Z,72.00
2018-06-27T07:41:34.805Z,72.70
2018-06-27T07:44:03.141Z,71.90
2018-06-27T07:46:31.464Z,73.80
2018-06-27T07:48:59.810Z,73.40
2018-06-27T07:51:28.141Z,71.30
2018-06-27T07:53:56.486Z,70.30
2018-06-27T07:56:25.097Z,71.00
2018-06-27T08:01:21.544Z,70.10
2018-06-27T08:03:49.889Z,67.60
2018-06-27T08:06:18.242Z,66.00
2018-06-27T08:08:46.598Z,66.40
2018-06-27T08:11:14.921Z,64.90
2018-06-27T08:13:43.369Z,66.00
2018-06-27T08:16:11.689Z,65.10
2018-06-27T08:18:42.772Z,64.70
2018-06-27T08:21:11.308Z,65.00
2018-06-27T08:23:39.778Z,64.20
2018-06-27T08:26:08.137Z,65.70
2018-06-27T08:28:36.474Z,65.20
2018-06-27T08:31:04.789Z,64.10
2018-06-27T08:33:33.129Z,63.90
2018-06-27T08:36:01.485Z,64.00
2018-06-27T08:38:29.846Z,61.90
2018-06-27T08:40:58.168Z,63.30
2018-06-27T08:43:26.564Z,62.70
2018-06-27T08:45:54.898Z,60.80
2018-06-27T08:48:23.233Z,59.50
2018-06-27T08:50:51.552Z,60.70
2018-06-27T08:53:19.888Z,60.20
2018-06-27T08:55:48.204Z,61.00
2018-06-27T08:58:16.537Z,62.20
2018-06-27T09:00:44.858Z,62.00
2018-06-27T09:03:13.206Z,61.60
2018-06-27T09:05:41.541Z,60.60
2018-06-27T09:08:09.901Z,59.70
2018-06-27T09:10:38.225Z,59.80
2018-06-27T09:13:06.532Z,59.30
2018-06-27T09:15:34.885Z,59.40
2018-06-27T09:18:03.271Z,59.30
2018-06-27T09:20:31.629Z,60.70
2018-06-27T09:22:59.942Z,60.30
2018-06-27T09:25:28.265Z,60.00
2018-06-27T09:27:56.593Z,60.30
2018-06-27T09:30:24.933Z,62.70
2018-06-27T09:32:53.262Z,61.20
2018-06-27T09:35:21.660Z,60.20
2018-06-27T09:37:49.974Z,59.00
2018-06-27T09:40:18.353Z,59.90
2018-06-27T09:42:46.693Z,61.60
2018-06-27T09:45:15.096Z,60.50
2018-06-27T09:47:43.447Z,59.30
2018-06-27T09:50:11.812Z,59.50
2018-06-27T09:52:40.178Z,58.60
2018-06-27T09:57:36.572Z,58.00
2018-06-27T10:00:05.432Z,56.70
2018-06-27T10:02:33.744Z,57.10
2018-06-27T10:05:02.101Z,55.80
2018-06-27T10:07:30.418Z,56.30
2018-06-27T10:09:58.766Z,57.30
2018-06-27T10:12:27.081Z,57.10
2018-06-27T10:14:55.433Z,56.10
2018-06-27T10:17:23.741Z,56.80
2018-06-27T10:19:52.065Z,56.20
2018-06-27T10:22:20.414Z,56.70
2018-06-27T10:24:48.785Z,56.30
2018-06-27T10:27:17.097Z,55.80
2018-06-27T10:29:45.433Z,55.60
2018-06-27T10:32:13.817Z,57.50
2018-06-27T10:34:42.152Z,57.80
2018-06-27T10:37:10.469Z,56.90
2018-06-27T10:39:38.830Z,56.20
2018-06-27T10:42:07.141Z,56.60
2018-06-27T10:44:35.553Z,55.80
2018-06-27T10:47:03.881Z,57.50
2018-06-27T10:49:32.268Z,58.90
2018-06-27T10:52:00.593Z,57.40
2018-06-27T10:54:28.884Z,57.80
2018-06-27T10:56:57.220Z,57.20
2018-06-27T10:59:25.537Z,56.70
2018-06-27T11:01:53.970Z,55.10
2018-06-27T11:04:22.297Z,51.70
2018-06-27T11:06:50.632Z,52.20
2018-06-27T11:09:18.946Z,53.70
2018-06-27T11:11:47.289Z,54.20
2018-06-27T11:14:16.495Z,51.90
2018-06-27T11:16:44.802Z,52.10
2018-06-27T11:19:13.137Z,51.50
2018-06-27T11:21:45.921Z,51.30
2018-06-27T11:24:14.250Z,51.00
2018-06-27T11:26:42.587Z,52.00
2018-06-27T11:29:10.901Z,52.30
2018-06-27T11:31:39.257Z,51.80
2018-06-27T11:34:07.604Z,53.40
2018-06-27T11:36:35.913Z,54.20
2018-06-27T11:39:07.578Z,52.90
2018-06-27T11:41:35.891Z,52.90
2018-06-27T11:44:04.258Z,52.70
2018-06-27T11:46:32.561Z,51.50
2018-06-27T11:49:00.918Z,52.10
2018-06-27T11:51:29.245Z,50.30
2018-06-27T11:53:57.597Z,50.20
2018-06-27T11:56:25.930Z,50.00
2018-06-27T11:58:54.324Z,50.50
2018-06-27T12:03:50.729Z,49.00
2018-06-27T12:06:19.314Z,49.40
2018-06-27T12:08:47.850Z,48.10
2018-06-27T12:11:16.393Z,48.20
2018-06-27T12:13:44.721Z,49.50
2018-06-27T12:16:13.228Z,48.50
2018-06-27T12:18:41.525Z,49.90
2018-06-27T12:21:09.885Z,49.70
2018-06-27T12:23:38.194Z,49.60
2018-06-27T12:26:06.590Z,48.80
2018-06-27T12:28:34.909Z,46.90
2018-06-27T12:31:03.258Z,47.80
2018-06-27T12:33:31.577Z,47.50
2018-06-27T12:35:59.917Z,47.60
2018-06-27T12:38:28.229Z,47.10
2018-06-27T12:40:56.574Z,46.50
2018-06-27T12:43:24.898Z,47.80
2018-06-27T12:45:53.247Z,45.80
2018-06-27T12:48:21.972Z,46.50
2018-06-27T12:50:50.349Z,43.50
2018-06-27T12:53:18.657Z,44.40
2018-06-27T12:55:47.004Z,45.00
2018-06-27T12:58:15.330Z,43.80
2018-06-27T13:00:43.702Z,43.90
2018-06-27T13:03:12.021Z,43.80
2018-06-27T13:05:40.368Z,42.80
2018-06-27T13:08:08.681Z,43.50
2018-06-27T13:10:37.044Z,42.90
2018-06-27T13:13:05.461Z,43.10
2018-06-27T13:15:33.818Z,41.40
2018-06-27T13:18:02.129Z,41.70
2018-06-27T13:20:30.485Z,41.80
2018-06-27T13:22:58.789Z,42.40
2018-06-27T13:25:27.156Z,40.00
2018-06-27T13:27:55.741Z,39.80
2018-06-27T13:30:24.076Z,37.90
2018-06-27T13:32:52.709Z,38.00
2018-06-27T13:35:21.068Z,38.40
2018-06-27T13:37:49.414Z,38.30
2018-06-27T13:40:17.763Z,37.40
2018-06-27T13:42:46.066Z,37.50
2018-06-27T13:45:14.444Z,37.60
2018-06-27T13:47:42.763Z,37.20
2018-06-27T13:50:11.186Z,37.90
2018-06-27T13:52:39.564Z,37.60
2018-06-27T13:55:07.914Z,36.10
2018-06-27T13:57:36.241Z,36.50
2018-06-27T14:00:05.060Z,36.00
2018-06-27T14:02:33.372Z,34.10
2018-06-27T14:05:01.669Z,35.00
2018-06-27T14:07:30.019Z,35.60
2018-06-27T14:09:58.342Z,34.20
2018-06-27T14:12:26.701Z,34.40
2018-06-27T14:14:55.034Z,34.40
2018-06-27T14:17:23.394Z,32.90
2018-06-27T14:19:51.698Z,31.90
2018-06-27T14:22:20.049Z,33.90
2018-06-27T14:24:48.361Z,34.20
2018-06-27T14:27:16.704Z,34.50
2018-06-27T14:29:45.025Z,34.60
2018-06-27T14:32:13.385Z,33.20
2018-06-27T14:34:41.734Z,33.50
2018-06-27T14:37:10.111Z,33.80
2018-06-27T14:39:38.442Z,34.30
2018-06-27T14:42:06.786Z,34.40
2018-06-27T14:44:35.102Z,33.80
2018-06-27T14:47:03.461Z,33.30
2018-06-27T14:49:31.782Z,34.10
2018-06-27T14:52:00.157Z,34.50
2018-06-27T14:54:28.484Z,34.90
2018-06-27T14:56:56.822Z,33.80
2018-06-27T14:59:25.205Z,33.40
2018-06-27T15:01:53.493Z,33.20
2018-06-27T15:04:21.816Z,33.80
2018-06-27T15:06:50.174Z,33.20
2018-06-27T15:09:18.486Z,33.50
2018-06-27T15:11:46.847Z,33.50
2018-06-27T15:14:15.145Z,33.70
2018-06-27T15:16:43.546Z,34.50
2018-06-27T15:19:11.827Z,33.50
2018-06-27T15:21:40.181Z,34.00
2018-06-27T15:24:08.503Z,34.50
2018-06-27T15:26:36.877Z,34.80
2018-06-27T15:29:05.210Z,34.80
2018-06-27T15:31:33.581Z,36.30
2018-06-27T15:34:01.894Z,36.80
2018-06-27T15:36:30.241Z,35.50
2018-06-27T15:38:58.565Z,35.60
2018-06-27T15:41:26.937Z,36.20
2018-06-27T15:43:55.241Z,37.50
2018-06-27T15:46:23.615Z,37.30
2018-06-27T15:48:51.938Z,37.50
2018-06-27T15:51:20.274Z,37.30
2018-06-27T15:53:48.601Z,35.90
2018-06-27T15:56:16.945Z,35.60
2018-06-27T15:58:45.309Z,35.70
2018-06-27T16:01:13.681Z,35.40
2018-06-27T16:03:42.382Z,34.70
2018-06-27T16:06:10.697Z,34.90
2018-06-27T16:08:39.090Z,33.90
2018-06-27T16:11:07.522Z,34.60
2018-06-27T16:13:35.849Z,35.20
2018-06-27T16:16:04.198Z,34.20
2018-06-27T16:18:32.596Z,34.70
2018-06-27T16:21:00.961Z,35.10
2018-06-27T16:23:29.302Z,34.60
2018-06-27T16:25:57.608Z,34.90
2018-06-27T16:28:26.052Z,34.90
2018-06-27T16:30:54.483Z,34.70
2018-06-27T16:33:22.850Z,33.50
2018-06-27T16:35:51.187Z,33.40
2018-06-27T16:38:19.552Z,33.00
2018-06-27T16:40:47.873Z,32.60
2018-06-27T16:43:16.248Z,33.30
2018-06-27T16:45:44.594Z,33.30
2018-06-27T16:48:12.933Z,33.20
2018-06-27T16:50:41.294Z,33.50
2018-06-27T16:53:09.649Z,33.10
2018-06-27T16:55:37.973Z,33.20
2018-06-27T16:58:06.341Z,33.60
2018-06-27T17:00:34.663Z,33.10
2018-06-27T17:03:03.005Z,32.40
2018-06-27T17:05:31.342Z,32.00
2018-06-27T17:07:59.687Z,32.10
2018-06-27T17:10:28.049Z,32.10
2018-06-27T17:12:56.471Z,31.30
2018-06-27T17:15:24.832Z,30.90
2018-06-27T17:17:53.221Z,30.80
2018-06-27T17:20:21.541Z,32.10
2018-06-27T17:22:49.889Z,31.40
2018-06-27T17:25:18.268Z,32.10
2018-06-27T17:27:46.566Z,31.50
2018-06-27T17:30:14.893Z,31.70
2018-06-27T17:32:43.273Z,31.90
2018-06-27T17:35:11.592Z,32.10
2018-06-27T17:37:40.033Z,31.90
2018-06-27T17:42:36.507Z,32.00
2018-06-27T17:45:05.329Z,31.80
2018-06-27T17:47:33.706Z,32.20
2018-06-27T17:50:02.167Z,32.60
2018-06-27T17:52:30.476Z,32.90
2018-06-27T17:54:58.822Z,32.90
2018-06-27T17:57:27.158Z,32.70
2018-06-27T18:02:23.573Z,33.40
2018-06-27T18:04:51.949Z,32.50
2018-06-27T18:07:20.275Z,32.70
2018-06-27T18:12:16.686Z,35.20
2018-06-27T18:14:45.022Z,36.30
2018-06-27T18:17:13.380Z,37.10
2018-06-27T18:22:09.798Z,38.10
2018-06-27T18:24:38.158Z,38.70
2018-06-27T18:27:06.514Z,39.50
2018-06-27T18:29:34.872Z,40.00
2018-06-27T18:32:03.185Z,40.50
2018-06-27T18:34:31.546Z,41.20
2018-06-27T18:36:59.897Z,41.50
2018-06-27T18:39:28.240Z,41.80
2018-06-27T18:41:56.545Z,42.30
2018-06-27T18:44:24.882Z,43.00
2018-06-27T18:46:53.208Z,43.30
2018-06-27T18:49:21.541Z,43.40
2018-06-27T18:51:49.879Z,43.90
2018-06-27T18:54:18.238Z,44.30
2018-06-27T18:56:46.557Z,44.10
2018-06-27T18:59:14.997Z,43.70
2018-06-27T19:01:43.319Z,44.60
2018-06-27T19:04:11.718Z,44.10
2018-06-27T19:06:40.066Z,44.20
2018-06-27T19:09:10.341Z,44.30
2018-06-27T19:14:06.897Z,44.50
2018-06-27T19:16:35.429Z,44.90
2018-06-27T19:19:03.974Z,45.00
2018-06-27T19:21:32.261Z,44.70
2018-06-27T19:24:00.608Z,44.50
2018-06-27T19:26:28.917Z,44.60
2018-06-27T19:28:57.268Z,44.60
2018-06-27T19:31:25.698Z,44.50
2018-06-27T19:33:54.045Z,44.50
2018-06-27T19:36:22.357Z,44.50
2018-06-27T19:38:50.693Z,44.40
2018-06-27T19:41:19.083Z,44.40
2018-06-27T19:43:47.396Z,44.70
2018-06-27T19:46:15.714Z,44.50
2018-06-27T19:48:44.053Z,44.80
2018-06-27T19:51:12.365Z,44.80
2018-06-27T19:53:40.726Z,45.10
2018-06-27T19:56:09.085Z,45.40
2018-06-27T19:58:37.391Z,45.70
2018-06-27T20:01:05.739Z,45.80
2018-06-27T20:03:34.057Z,45.90
2018-06-27T20:06:02.421Z,45.90
2018-06-27T20:08:30.742Z,46.30
2018-06-27T20:10:59.133Z,46.60
2018-06-27T20:13:27.449Z,46.80
2018-06-27T20:15:55.824Z,46.90
2018-06-27T20:18:24.116Z,47.10
2018-06-27T20:20:52.469Z,47.40
2018-06-27T20:23:20.781Z,47.30
2018-06-27T20:25:49.128Z,47.40
2018-06-27T20:28:17.437Z,47.50
2018-06-27T20:30:45.789Z,47.70
2018-06-27T20:33:14.105Z,47.90
2018-06-27T20:35:42.450Z,48.10
2018-06-27T20:38:10.763Z,48.00
2018-06-27T20:40:39.109Z,48.20
2018-06-27T20:43:07.429Z,48.30
2018-06-27T20:45:35.855Z,48.50
2018-06-27T20:48:04.420Z,48.60
2018-06-27T20:50:32.756Z,48.90
2018-06-27T20:53:01.090Z,48.80
2018-06-27T20:55:29.477Z,48.80
2018-06-27T20:57:57.769Z,49.00
2018-06-27T21:00:26.105Z,48.90
2018-06-27T21:02:54.449Z,48.50
2018-06-27T21:05:22.802Z,48.70
2018-06-27T21:07:51.190Z,48.60
2018-06-27T21:10:19.550Z,48.80
2018-06-27T21:12:47.866Z,48.70
2018-06-27T21:15:16.211Z,48.80
2018-06-27T21:17:44.516Z,49.50
2018-06-27T21:20:12.952Z,49.00
2018-06-27T21:22:41.251Z,49.10
2018-06-27T21:25:09.608Z,49.10
2018-06-27T21:27:37.901Z,49.20
2018-06-27T21:30:07.236Z,49.60
2018-06-27T21:32:35.920Z,49.80
2018-06-27T21:35:04.293Z,49.80
2018-06-27T21:37:32.602Z,49.90
2018-06-27T21:40:01.202Z,50.00
2018-06-27T21:42:29.513Z,50.40
2018-06-27T21:44:58.084Z,50.30
2018-06-27T21:47:26.405Z,50.40
2018-06-27T21:49:54.770Z,50.60
2018-06-27T21:52:23.111Z,50.90
2018-06-27T21:54:51.619Z,51.00
2018-06-27T21:57:20.262Z,51.00
2018-06-27T21:59:48.569Z,51.40
2018-06-27T22:02:16.929Z,51.40
2018-06-27T22:04:45.278Z,51.80
2018-06-27T22:07:13.703Z,51.80
2018-06-27T22:09:42.075Z,52.20
2018-06-27T22:14:38.450Z,52.00
2018-06-27T22:17:06.835Z,52.70
2018-06-27T22:19:35.152Z,52.40
2018-06-27T22:22:03.529Z,52.50
2018-06-27T22:24:31.860Z,52.60
2018-06-27T22:27:00.221Z,52.80
2018-06-27T22:29:28.537Z,53.00
2018-06-27T22:31:56.877Z,53.70
2018-06-27T22:34:25.194Z,53.60
2018-06-27T22:36:53.537Z,53.70
2018-06-27T22:41:49.920Z,54.30
2018-06-27T22:44:18.237Z,54.70
2018-06-27T22:46:46.576Z,54.80
2018-06-27T22:49:14.884Z,54.90
2018-06-27T22:51:43.238Z,55.00
2018-06-27T22:54:11.562Z,55.30
2018-06-27T22:56:39.900Z,55.60
2018-06-27T22:59:08.210Z,55.90
2018-06-27T23:01:36.597Z,55.90
2018-06-27T23:04:04.929Z,56.00
2018-06-27T23:06:33.314Z,56.40
2018-06-27T23:09:01.620Z,56.50
2018-06-27T23:11:30.003Z,56.60
2018-06-27T23:13:58.318Z,56.60
2018-06-27T23:18:54.692Z,57.10
2018-06-27T23:21:23.036Z,57.30
2018-06-27T23:23:51.353Z,57.10
2018-06-27T23:26:19.681Z,57.60
2018-06-27T23:28:48.115Z,57.70
2018-06-27T23:31:16.479Z,57.80
2018-06-27T23:33:44.956Z,58.00
2018-06-27T23:36:13.321Z,58.10
2018-06-27T23:38:41.662Z,58.00
2018-06-27T23:41:09.966Z,58.30
2018-06-27T23:43:38.346Z,58.50
2018-06-27T23:46:06.661Z,58.70
2018-06-27T23:48:35.013Z,59.10
2018-06-27T23:51:03.367Z,59.50
2018-06-27T23:53:31.716Z,60.50
2018-06-27T23:56:00.047Z,60.90
2018-06-27T23:58:28.385Z,60.90
